createdAt,value
2018-09-03T00:00:33.404Z,0.00
2018-09-03T00:01:33.361Z,0.00
2018-09-03T00:03:26.201Z,0.00
2018-09-03T00:04:26.145Z,0.00
2018-09-03T00:06:18.982Z,0.00
2018-09-03T00:07:18.919Z,0.00
2018-09-03T00:09:11.744Z,0.00
2018-09-03T00:10:11.705Z,0.00
2018-09-03T00:12:04.530Z,0.00
2018-09-03T00:13:04.495Z,0.00
2018-09-03T00:14:57.791Z,0.00
2018-09-03T00:15:57.760Z,0.00
2018-09-03T00:17:50.598Z,0.00
2018-09-03T00:18:50.597Z,0.00
2018-09-03T00:20:43.351Z,0.00
2018-09-03T00:21:43.313Z,0.00
2018-09-03T00:23:36.142Z,0.00
2018-09-03T00:24:36.095Z,0.00
2018-09-03T00:26:28.901Z,0.00
2018-09-03T00:27:28.872Z,0.00
2018-09-03T00:29:21.701Z,0.00
2018-09-03T00:30:21.658Z,0.00
2018-09-03T00:32:14.465Z,0.00
2018-09-03T00:33:14.436Z,0.00
2018-09-03T00:35:07.275Z,0.00
2018-09-03T00:36:07.220Z,0.00
2018-09-03T00:38:00.558Z,0.00
2018-09-03T00:39:00.502Z,0.00
2018-09-03T00:40:53.306Z,0.00
2018-09-03T00:41:53.287Z,0.00
2018-09-03T00:43:46.108Z,0.00
2018-09-03T00:44:46.063Z,0.00
2018-09-03T00:46:38.982Z,0.00
2018-09-03T00:47:38.837Z,0.00
2018-09-03T00:49:32.162Z,0.00
2018-09-03T00:50:32.112Z,0.00
2018-09-03T00:52:25.415Z,0.00
2018-09-03T00:53:25.397Z,0.00
2018-09-03T00:55:18.213Z,0.00
2018-09-03T00:56:18.168Z,0.00
2018-09-03T00:58:11.001Z,0.00
2018-09-03T00:59:10.968Z,0.00
2018-09-03T01:01:03.787Z,0.00
2018-09-03T01:02:03.737Z,0.00
2018-09-03T01:03:56.562Z,0.00
2018-09-03T01:04:56.509Z,0.00
2018-09-03T01:06:49.323Z,0.00
2018-09-03T01:07:49.292Z,0.00
2018-09-03T01:09:42.616Z,0.00
2018-09-03T01:10:42.576Z,0.00
2018-09-03T01:12:35.380Z,0.00
2018-09-03T01:13:35.348Z,0.00
2018-09-03T01:15:28.178Z,0.00
2018-09-03T01:16:28.128Z,0.00
2018-09-03T01:18:21.444Z,0.00
2018-09-03T01:19:21.410Z,0.00
2018-09-03T01:21:14.257Z,0.00
2018-09-03T01:22:14.194Z,0.00
2018-09-03T01:24:07.528Z,0.00
2018-09-03T01:25:07.470Z,0.00
2018-09-03T01:27:00.293Z,0.00
2018-09-03T01:28:00.245Z,0.00
2018-09-03T01:29:53.088Z,0.00
2018-09-03T01:30:53.034Z,0.00
2018-09-03T01:32:45.854Z,0.00
2018-09-03T01:33:45.816Z,0.00
2018-09-03T01:35:38.640Z,0.00
2018-09-03T01:36:38.580Z,0.00
2018-09-03T01:38:31.895Z,0.00
2018-09-03T01:39:31.861Z,0.00
2018-09-03T01:41:24.691Z,0.00
2018-09-03T01:42:24.640Z,0.00
2018-09-03T01:44:17.464Z,0.00
2018-09-03T01:45:17.419Z,0.00
2018-09-03T01:47:10.255Z,0.00
2018-09-03T01:48:10.214Z,0.00
2018-09-03T01:50:03.513Z,0.00
2018-09-03T01:51:03.475Z,0.00
2018-09-03T01:52:56.314Z,0.00
2018-09-03T01:53:56.287Z,0.00
2018-09-03T01:55:49.069Z,0.00
2018-09-03T01:56:49.042Z,0.00
2018-09-03T01:58:41.884Z,0.00
2018-09-03T01:59:41.821Z,0.00
2018-09-03T02:01:34.644Z,0.00
2018-09-03T02:02:34.605Z,0.00
2018-09-03T02:04:27.420Z,0.00
2018-09-03T02:05:27.380Z,0.00
2018-09-03T02:07:20.696Z,0.00
2018-09-03T02:08:20.656Z,0.00
2018-09-03T02:10:13.957Z,0.00
2018-09-03T02:11:13.936Z,0.00
2018-09-03T02:13:06.762Z,0.00
2018-09-03T02:14:06.717Z,0.00
2018-09-03T02:15:59.531Z,0.00
2018-09-03T02:16:59.492Z,0.00
2018-09-03T02:18:52.314Z,0.00
2018-09-03T02:19:52.280Z,0.00
2018-09-03T02:21:45.113Z,0.00
2018-09-03T02:22:45.074Z,0.00
2018-09-03T02:24:37.902Z,0.00
2018-09-03T02:25:37.852Z,0.00
2018-09-03T02:27:31.174Z,0.00
2018-09-03T02:28:31.119Z,0.00
2018-09-03T02:30:24.425Z,0.00
2018-09-03T02:31:24.406Z,0.00
2018-09-03T02:33:17.724Z,0.00
2018-09-03T02:34:17.672Z,0.00
2018-09-03T02:36:10.492Z,0.00
2018-09-03T02:37:10.460Z,0.00
2018-09-03T02:39:03.295Z,0.00
2018-09-03T02:40:03.250Z,0.00
2018-09-03T02:41:56.050Z,0.00
2018-09-03T02:42:56.020Z,0.00
2018-09-03T02:44:48.871Z,0.00
2018-09-03T02:45:48.805Z,0.00
2018-09-03T02:47:41.618Z,0.00
2018-09-03T02:48:41.600Z,0.00
2018-09-03T02:50:34.418Z,0.00
2018-09-03T02:51:34.376Z,0.00
2018-09-03T02:53:27.204Z,0.00
2018-09-03T02:54:27.166Z,0.00
2018-09-03T02:56:19.968Z,0.00
2018-09-03T02:57:19.938Z,0.00
2018-09-03T02:59:12.772Z,0.00
2018-09-03T03:00:12.723Z,0.00
2018-09-03T03:02:05.539Z,0.00
2018-09-03T03:03:05.508Z,0.00
2018-09-03T03:04:58.337Z,0.00
2018-09-03T03:05:58.297Z,0.00
2018-09-03T03:07:51.610Z,0.00
2018-09-03T03:08:51.576Z,0.00
2018-09-03T03:10:44.883Z,0.00
2018-09-03T03:11:44.888Z,0.00
2018-09-03T03:13:37.658Z,0.00
2018-09-03T03:14:37.626Z,0.00
2018-09-03T03:16:30.458Z,0.00
2018-09-03T03:17:30.418Z,0.00
2018-09-03T03:19:23.218Z,0.00
2018-09-03T03:20:23.199Z,0.00
2018-09-03T03:22:16.008Z,0.00
2018-09-03T03:23:15.964Z,0.00
2018-09-03T03:25:08.790Z,0.00
2018-09-03T03:26:08.746Z,0.00
2018-09-03T03:28:01.562Z,0.00
2018-09-03T03:29:01.532Z,0.00
2018-09-03T03:30:54.347Z,0.00
2018-09-03T03:31:54.308Z,0.00
2018-09-03T03:33:47.612Z,0.00
2018-09-03T03:34:47.582Z,0.00
2018-09-03T03:36:40.407Z,0.00
2018-09-03T03:37:40.362Z,0.00
2018-09-03T03:39:33.183Z,0.00
2018-09-03T03:40:33.147Z,0.00
2018-09-03T03:42:25.988Z,0.00
2018-09-03T03:43:25.928Z,0.00
2018-09-03T03:45:18.767Z,0.00
2018-09-03T03:46:18.708Z,0.00
2018-09-03T03:48:11.519Z,0.00
2018-09-03T03:49:11.495Z,0.00
2018-09-03T03:51:04.312Z,0.00
2018-09-03T03:52:04.269Z,0.00
2018-09-03T03:53:57.085Z,0.00
2018-09-03T03:54:57.072Z,0.00
2018-09-03T03:56:49.884Z,0.00
2018-09-03T03:57:49.839Z,0.00
2018-09-03T03:59:42.646Z,0.00
2018-09-03T04:00:42.615Z,0.00
2018-09-03T04:02:35.465Z,0.00
2018-09-03T04:03:35.417Z,0.00
2018-09-03T04:05:28.225Z,0.00
2018-09-03T04:06:28.196Z,0.00
2018-09-03T04:08:21.028Z,0.00
2018-09-03T04:09:20.974Z,0.00
2018-09-03T04:11:13.794Z,0.00
2018-09-03T04:12:13.759Z,0.00
2018-09-03T04:14:06.580Z,0.00
2018-09-03T04:15:06.540Z,0.00
2018-09-03T04:16:59.384Z,0.00
2018-09-03T04:17:59.326Z,0.00
2018-09-03T04:19:52.132Z,0.00
2018-09-03T04:20:52.101Z,0.00
2018-09-03T04:22:44.926Z,0.00
2018-09-03T04:23:44.879Z,0.00
2018-09-03T04:25:37.691Z,0.00
2018-09-03T04:26:37.669Z,0.00
2018-09-03T04:28:30.487Z,0.00
2018-09-03T04:29:30.451Z,0.00
2018-09-03T04:31:23.255Z,0.00
2018-09-03T04:32:23.225Z,0.00
2018-09-03T04:34:16.060Z,0.00
2018-09-03T04:35:16.011Z,0.00
2018-09-03T04:37:08.811Z,0.00
2018-09-03T04:38:08.782Z,0.00
2018-09-03T04:40:01.620Z,0.00
2018-09-03T04:41:01.559Z,0.00
2018-09-03T04:42:54.380Z,0.00
2018-09-03T04:43:54.342Z,0.00
2018-09-03T04:45:47.171Z,0.00
2018-09-03T04:46:47.130Z,0.00
2018-09-03T04:48:39.952Z,0.00
2018-09-03T04:49:39.902Z,0.00
2018-09-03T04:51:32.721Z,0.00
2018-09-03T04:52:32.697Z,0.00
2018-09-03T04:54:25.518Z,0.00
2018-09-03T04:55:25.552Z,0.00
2018-09-03T04:57:18.771Z,0.00
2018-09-03T04:58:18.738Z,0.00
2018-09-03T05:00:11.563Z,0.00
2018-09-03T05:01:11.522Z,0.00
2018-09-03T05:03:04.383Z,0.00
2018-09-03T05:04:04.314Z,0.00
2018-09-03T05:05:57.203Z,0.00
2018-09-03T05:06:57.084Z,0.00
2018-09-03T05:08:49.892Z,0.00
2018-09-03T05:09:49.862Z,0.00
2018-09-03T05:11:42.740Z,0.00
2018-09-03T05:12:42.648Z,0.00
2018-09-03T05:14:35.476Z,0.00
2018-09-03T05:15:35.430Z,0.00
2018-09-03T05:17:28.237Z,0.00
2018-09-03T05:18:28.198Z,0.00
2018-09-03T05:20:21.028Z,0.00
2018-09-03T05:21:20.979Z,0.00
2018-09-03T05:23:13.803Z,0.00
2018-09-03T05:24:13.772Z,0.00
2018-09-03T05:26:06.595Z,0.00
2018-09-03T05:27:06.548Z,0.00
2018-09-03T05:28:59.363Z,0.00
2018-09-03T05:29:59.333Z,0.00
2018-09-03T05:31:52.168Z,0.00
2018-09-03T05:32:52.114Z,0.00
2018-09-03T05:34:44.953Z,0.00
2018-09-03T05:35:44.915Z,0.00
2018-09-03T05:37:37.743Z,0.00
2018-09-03T05:38:37.698Z,0.00
2018-09-03T05:40:30.538Z,0.00
2018-09-03T05:41:30.484Z,0.00
2018-09-03T05:43:23.415Z,0.00
2018-09-03T05:44:23.255Z,5.63
2018-09-03T05:46:16.086Z,5.63
2018-09-03T05:47:16.046Z,5.63
2018-09-03T05:49:08.869Z,5.63
2018-09-03T05:50:08.829Z,5.63
2018-09-03T05:52:01.653Z,5.63
2018-09-03T05:53:01.607Z,5.63
2018-09-03T05:54:54.439Z,5.63
2018-09-03T05:55:54.380Z,5.63
2018-09-03T05:57:47.225Z,11.25
2018-09-03T05:58:47.169Z,11.25
2018-09-03T06:00:39.983Z,11.25
2018-09-03T06:01:39.958Z,5.63
2018-09-03T06:03:32.783Z,5.63
2018-09-03T06:04:32.733Z,5.63
2018-09-03T06:06:25.559Z,5.63
2018-09-03T06:07:25.524Z,5.63
2018-09-03T06:09:18.340Z,5.63
2018-09-03T06:10:18.300Z,5.63
2018-09-03T06:12:11.131Z,5.63
2018-09-03T06:13:11.071Z,11.25
2018-09-03T06:15:03.885Z,11.25
2018-09-03T06:16:03.876Z,11.25
2018-09-03T06:17:56.743Z,11.25
2018-09-03T06:18:56.648Z,11.25
2018-09-03T06:20:49.484Z,16.88
2018-09-03T06:21:49.430Z,16.88
2018-09-03T06:23:42.240Z,16.88
2018-09-03T06:24:42.214Z,16.88
2018-09-03T06:26:35.074Z,16.88
2018-09-03T06:27:34.995Z,16.88
2018-09-03T06:29:27.820Z,16.88
2018-09-03T06:30:27.782Z,16.88
2018-09-03T06:32:20.585Z,16.88
2018-09-03T06:33:20.556Z,16.88
2018-09-03T06:35:13.382Z,22.50
2018-09-03T06:36:13.337Z,22.50
2018-09-03T06:38:06.165Z,22.50
2018-09-03T06:39:06.180Z,22.50
2018-09-03T06:40:58.940Z,22.50
2018-09-03T06:41:58.900Z,28.13
2018-09-03T06:43:51.726Z,28.13
2018-09-03T06:44:51.686Z,28.13
2018-09-03T06:46:44.506Z,33.75
2018-09-03T06:47:44.468Z,33.75
2018-09-03T06:49:38.302Z,33.75
2018-09-03T06:50:38.243Z,33.75
2018-09-03T06:52:31.082Z,33.75
2018-09-03T06:53:31.034Z,33.75
2018-09-03T06:55:23.857Z,33.75
2018-09-03T06:56:23.811Z,33.75
2018-09-03T06:58:16.626Z,33.75
2018-09-03T06:59:16.586Z,33.75
2018-09-03T07:01:09.419Z,33.75
2018-09-03T07:02:09.366Z,33.75
2018-09-03T07:04:02.187Z,39.38
2018-09-03T07:05:02.168Z,39.38
2018-09-03T07:06:55.004Z,39.38
2018-09-03T07:07:54.947Z,39.38
2018-09-03T07:09:47.786Z,39.38
2018-09-03T07:10:47.722Z,33.75
2018-09-03T07:12:41.033Z,33.75
2018-09-03T07:13:41.006Z,33.75
2018-09-03T07:15:33.836Z,33.75
2018-09-03T07:16:33.786Z,33.75
2018-09-03T07:18:26.619Z,33.75
2018-09-03T07:19:26.572Z,39.38
2018-09-03T07:21:19.403Z,39.38
2018-09-03T07:22:19.358Z,33.75
2018-09-03T07:24:12.168Z,33.75
2018-09-03T07:25:12.136Z,33.75
2018-09-03T07:27:04.961Z,28.13
2018-09-03T07:28:04.916Z,28.13
2018-09-03T07:29:57.745Z,28.13
2018-09-03T07:30:57.706Z,33.75
2018-09-03T07:32:50.527Z,39.38
2018-09-03T07:33:50.483Z,39.38
2018-09-03T07:35:43.370Z,45.00
2018-09-03T07:36:43.266Z,45.00
2018-09-03T07:38:36.114Z,50.63
2018-09-03T07:39:36.069Z,50.63
2018-09-03T07:41:28.905Z,56.25
2018-09-03T07:42:28.854Z,56.25
2018-09-03T07:44:21.664Z,67.50
2018-09-03T07:45:21.639Z,67.50
2018-09-03T07:47:14.482Z,67.50
2018-09-03T07:48:14.446Z,67.50
2018-09-03T07:50:07.232Z,61.88
2018-09-03T07:51:07.222Z,61.88
2018-09-03T07:53:00.035Z,56.25
2018-09-03T07:53:59.988Z,50.63
2018-09-03T07:55:52.798Z,45.00
2018-09-03T07:56:52.771Z,39.38
2018-09-03T07:58:45.603Z,33.75
2018-09-03T07:59:45.556Z,33.75
2018-09-03T08:01:38.364Z,33.75
2018-09-03T08:02:38.330Z,33.75
2018-09-03T08:04:31.168Z,33.75
2018-09-03T08:05:31.117Z,33.75
2018-09-03T08:07:23.992Z,33.75
2018-09-03T08:08:23.908Z,33.75
2018-09-03T08:10:16.739Z,39.38
2018-09-03T08:11:16.698Z,39.38
2018-09-03T08:13:09.523Z,33.75
2018-09-03T08:14:09.486Z,33.75
2018-09-03T08:16:02.288Z,28.13
2018-09-03T08:17:02.268Z,28.13
2018-09-03T08:18:55.110Z,28.13
2018-09-03T08:19:55.059Z,28.13
2018-09-03T08:21:47.861Z,28.13
2018-09-03T08:22:47.840Z,28.13
2018-09-03T08:24:40.660Z,28.13
2018-09-03T08:25:40.620Z,28.13
2018-09-03T08:27:33.431Z,33.75
2018-09-03T08:28:33.402Z,33.75
2018-09-03T08:30:26.227Z,39.38
2018-09-03T08:31:26.192Z,39.38
2018-09-03T08:33:19.048Z,56.25
2018-09-03T08:34:18.972Z,61.88
2018-09-03T08:36:11.811Z,67.50
2018-09-03T08:37:11.767Z,67.50
2018-09-03T08:39:04.591Z,73.13
2018-09-03T08:40:04.582Z,73.13
2018-09-03T08:41:57.376Z,78.75
2018-09-03T08:42:57.333Z,78.75
2018-09-03T08:44:50.228Z,73.13
2018-09-03T08:45:50.117Z,73.13
2018-09-03T08:47:42.934Z,73.13
2018-09-03T08:48:42.898Z,67.50
2018-09-03T08:50:35.765Z,56.25
2018-09-03T08:51:35.729Z,50.63
2018-09-03T08:53:28.528Z,39.38
2018-09-03T08:54:28.498Z,39.38
2018-09-03T08:56:21.327Z,33.75
2018-09-03T08:57:21.285Z,33.75
2018-09-03T08:59:14.112Z,28.13
2018-09-03T09:00:14.071Z,33.75
2018-09-03T09:02:06.887Z,33.75
2018-09-03T09:03:06.851Z,39.38
2018-09-03T09:04:59.676Z,45.00
2018-09-03T09:05:59.631Z,50.63
2018-09-03T09:07:52.457Z,45.00
2018-09-03T09:08:52.419Z,45.00
2018-09-03T09:10:45.243Z,45.00
2018-09-03T09:11:45.219Z,39.38
2018-09-03T09:13:38.021Z,39.38
2018-09-03T09:14:37.988Z,33.75
2018-09-03T09:16:30.813Z,33.75
2018-09-03T09:17:30.783Z,39.38
2018-09-03T09:19:23.583Z,45.00
2018-09-03T09:20:23.556Z,45.00
2018-09-03T09:22:16.397Z,39.38
2018-09-03T09:23:16.349Z,39.38
2018-09-03T09:25:09.706Z,39.38
2018-09-03T09:26:09.634Z,39.38
2018-09-03T09:28:02.456Z,45.00
2018-09-03T09:29:02.412Z,45.00
2018-09-03T09:30:55.254Z,50.63
2018-09-03T09:31:55.188Z,50.63
2018-09-03T09:33:48.009Z,56.25
2018-09-03T09:34:47.972Z,56.25
2018-09-03T09:36:40.854Z,61.88
2018-09-03T09:37:40.767Z,61.88
2018-09-03T09:39:34.081Z,67.50
2018-09-03T09:40:34.047Z,67.50
2018-09-03T09:42:27.438Z,67.50
2018-09-03T09:43:27.380Z,73.13
2018-09-03T09:45:20.688Z,78.75
2018-09-03T09:46:20.660Z,73.13
2018-09-03T09:48:13.992Z,73.13
2018-09-03T09:49:13.939Z,67.50
2018-09-03T09:51:06.759Z,78.75
2018-09-03T09:52:06.729Z,78.75
2018-09-03T09:53:59.554Z,95.63
2018-09-03T09:54:59.538Z,225.00
2018-09-03T09:56:52.830Z,292.50
2018-09-03T09:57:52.795Z,410.63
2018-09-03T09:59:45.613Z,393.75
2018-09-03T10:00:45.588Z,388.13
2018-09-03T10:02:38.908Z,382.50
2018-09-03T10:03:38.878Z,365.63
2018-09-03T10:05:32.201Z,354.38
2018-09-03T10:06:32.168Z,275.63
2018-09-03T10:08:25.488Z,360.00
2018-09-03T10:09:25.458Z,281.25
2018-09-03T10:11:18.280Z,129.38
2018-09-03T10:12:18.253Z,146.25
2018-09-03T10:14:11.079Z,174.38
2018-09-03T10:15:11.040Z,247.50
2018-09-03T10:17:03.868Z,118.13
2018-09-03T10:18:03.848Z,106.88
2018-09-03T10:19:56.680Z,151.88
2018-09-03T10:20:56.650Z,151.88
2018-09-03T10:22:49.965Z,112.50
2018-09-03T10:23:49.926Z,95.63
2018-09-03T10:25:43.243Z,78.75
2018-09-03T10:26:43.210Z,78.75
2018-09-03T10:28:36.051Z,73.13
2018-09-03T10:29:36.018Z,73.13
2018-09-03T10:31:29.825Z,84.38
2018-09-03T10:32:29.803Z,95.63
2018-09-03T10:34:22.634Z,129.38
2018-09-03T10:35:22.595Z,180.00
2018-09-03T10:37:15.415Z,151.88
2018-09-03T10:38:15.398Z,174.38
2018-09-03T10:40:08.727Z,354.38
2018-09-03T10:41:08.684Z,230.63
2018-09-03T10:43:01.997Z,157.50
2018-09-03T10:44:01.972Z,135.00
2018-09-03T10:45:54.800Z,90.00
2018-09-03T10:46:54.779Z,90.00
2018-09-03T10:48:47.587Z,95.63
2018-09-03T10:49:47.557Z,123.75
2018-09-03T10:51:40.875Z,174.38
2018-09-03T10:52:40.836Z,219.38
2018-09-03T10:54:34.191Z,202.50
2018-09-03T10:55:34.137Z,208.13
2018-09-03T10:57:27.465Z,230.63
2018-09-03T10:58:27.426Z,275.63
2018-09-03T11:00:20.802Z,191.25
2018-09-03T11:01:20.756Z,163.13
2018-09-03T11:03:14.076Z,146.25
2018-09-03T11:04:14.036Z,151.88
2018-09-03T11:06:07.376Z,129.38
2018-09-03T11:07:07.331Z,129.38
2018-09-03T11:09:00.653Z,191.25
2018-09-03T11:10:00.613Z,146.25
2018-09-03T11:11:53.487Z,112.50
2018-09-03T11:12:53.417Z,95.63
2018-09-03T11:14:46.749Z,84.38
2018-09-03T11:15:46.716Z,84.38
2018-09-03T11:17:39.536Z,78.75
2018-09-03T11:18:39.497Z,78.75
2018-09-03T11:20:32.812Z,78.75
2018-09-03T11:21:33.014Z,73.13
2018-09-03T11:23:25.616Z,61.88
2018-09-03T11:24:25.576Z,61.88
2018-09-03T11:26:18.391Z,61.88
2018-09-03T11:27:18.521Z,61.88
2018-09-03T11:29:11.201Z,56.25
2018-09-03T11:30:11.152Z,56.25
2018-09-03T11:32:03.985Z,56.25
2018-09-03T11:33:03.948Z,56.25
2018-09-03T11:34:56.859Z,50.63
2018-09-03T11:35:56.731Z,50.63
2018-09-03T11:37:49.571Z,50.63
2018-09-03T11:38:49.521Z,50.63
2018-09-03T11:40:42.873Z,50.63
2018-09-03T11:41:42.808Z,50.63
2018-09-03T11:43:35.628Z,50.63
2018-09-03T11:44:35.610Z,50.63
2018-09-03T11:46:28.930Z,50.63
2018-09-03T11:47:28.879Z,50.63
2018-09-03T11:49:22.209Z,45.00
2018-09-03T11:50:22.170Z,50.63
2018-09-03T11:52:15.493Z,50.63
2018-09-03T11:53:15.453Z,56.25
2018-09-03T11:55:08.784Z,61.88
2018-09-03T11:56:08.737Z,67.50
2018-09-03T11:58:01.573Z,73.13
2018-09-03T11:59:01.530Z,73.13
2018-09-03T12:00:54.374Z,78.75
2018-09-03T12:01:54.389Z,78.75
2018-09-03T12:03:47.153Z,78.75
2018-09-03T12:04:47.125Z,73.13
2018-09-03T12:06:39.958Z,73.13
2018-09-03T12:07:39.895Z,73.13
2018-09-03T12:09:32.719Z,73.13
2018-09-03T12:10:32.680Z,73.13
2018-09-03T12:12:25.510Z,67.50
2018-09-03T12:13:25.474Z,67.50
2018-09-03T12:15:18.793Z,73.13
2018-09-03T12:16:18.770Z,73.13
2018-09-03T12:18:12.093Z,67.50
2018-09-03T12:19:12.057Z,67.50
2018-09-03T12:21:05.424Z,67.50
2018-09-03T12:22:05.343Z,67.50
2018-09-03T12:23:58.167Z,67.50
2018-09-03T12:24:58.119Z,67.50
2018-09-03T12:26:50.942Z,67.50
2018-09-03T12:27:50.925Z,61.88
2018-09-03T12:29:44.238Z,61.88
2018-09-03T12:30:44.181Z,61.88
2018-09-03T12:32:37.011Z,61.88
2018-09-03T12:33:36.991Z,61.88
2018-09-03T12:35:30.303Z,61.88
2018-09-03T12:36:30.279Z,61.88
2018-09-03T12:38:23.586Z,61.88
2018-09-03T12:39:23.544Z,61.88
2018-09-03T12:41:16.351Z,61.88
2018-09-03T12:42:16.331Z,56.25
2018-09-03T12:44:09.164Z,50.63
2018-09-03T12:45:09.123Z,50.63
2018-09-03T12:47:01.945Z,50.63
2018-09-03T12:48:01.911Z,50.63
2018-09-03T12:49:55.239Z,50.63
2018-09-03T12:50:55.197Z,56.25
2018-09-03T12:52:48.020Z,56.25
2018-09-03T12:53:47.985Z,61.88
2018-09-03T12:55:41.316Z,67.50
2018-09-03T12:56:41.270Z,67.50
2018-09-03T12:58:34.112Z,67.50
2018-09-03T12:59:34.044Z,61.88
2018-09-03T13:01:27.386Z,61.88
2018-09-03T13:02:27.350Z,67.50
2018-09-03T13:04:20.709Z,78.75
2018-09-03T13:05:20.626Z,84.38
2018-09-03T13:07:13.450Z,78.75
2018-09-03T13:08:13.422Z,67.50
2018-09-03T13:10:06.225Z,61.88
2018-09-03T13:11:06.205Z,61.88
2018-09-03T13:12:59.067Z,56.25
2018-09-03T13:13:58.992Z,56.25
2018-09-03T13:15:51.806Z,50.63
2018-09-03T13:16:51.773Z,50.63
2018-09-03T13:18:45.145Z,56.25
2018-09-03T13:19:45.076Z,61.88
2018-09-03T13:21:37.907Z,67.50
2018-09-03T13:22:37.858Z,73.13
2018-09-03T13:24:30.702Z,67.50
2018-09-03T13:25:30.655Z,56.25
2018-09-03T13:27:23.978Z,50.63
2018-09-03T13:28:23.931Z,50.63
2018-09-03T13:30:16.747Z,50.63
2018-09-03T13:31:16.728Z,50.63
2018-09-03T13:33:10.051Z,50.63
2018-09-03T13:34:10.011Z,50.63
2018-09-03T13:36:02.852Z,50.63
2018-09-03T13:37:02.793Z,50.63
2018-09-03T13:38:55.633Z,50.63
2018-09-03T13:39:55.595Z,50.63
2018-09-03T13:41:48.892Z,45.00
2018-09-03T13:42:48.876Z,45.00
2018-09-03T13:44:41.701Z,39.38
2018-09-03T13:45:41.657Z,39.38
2018-09-03T13:47:34.492Z,39.38
2018-09-03T13:48:34.451Z,39.38
2018-09-03T13:50:27.784Z,39.38
2018-09-03T13:51:27.729Z,39.38
2018-09-03T13:53:21.072Z,39.38
2018-09-03T13:54:21.029Z,39.38
2018-09-03T13:56:14.339Z,45.00
2018-09-03T13:57:14.296Z,50.63
2018-09-03T13:59:07.606Z,56.25
2018-09-03T14:00:07.587Z,61.88
2018-09-03T14:02:00.425Z,67.50
2018-09-03T14:03:00.372Z,67.50
2018-09-03T14:04:53.251Z,73.13
2018-09-03T14:05:53.163Z,78.75
2018-09-03T14:07:46.537Z,78.75
2018-09-03T14:08:46.447Z,67.50
2018-09-03T14:10:39.780Z,61.88
2018-09-03T14:11:39.822Z,61.88
2018-09-03T14:13:33.075Z,61.88
2018-09-03T14:14:33.016Z,61.88
2018-09-03T14:16:25.840Z,56.25
2018-09-03T14:17:25.804Z,56.25
2018-09-03T14:19:19.148Z,56.25
2018-09-03T14:20:19.103Z,56.25
2018-09-03T14:22:12.435Z,56.25
2018-09-03T14:23:12.383Z,56.25
2018-09-03T14:25:05.222Z,56.25
2018-09-03T14:26:05.179Z,56.25
2018-09-03T14:27:57.992Z,50.63
2018-09-03T14:28:57.959Z,50.63
2018-09-03T14:30:51.293Z,45.00
2018-09-03T14:31:51.240Z,45.00
2018-09-03T14:33:44.069Z,45.00
2018-09-03T14:34:44.035Z,45.00
2018-09-03T14:36:37.371Z,50.63
2018-09-03T14:37:37.329Z,50.63
2018-09-03T14:39:30.653Z,50.63
2018-09-03T14:40:30.615Z,56.25
2018-09-03T14:42:23.439Z,56.25
2018-09-03T14:43:23.390Z,56.25
2018-09-03T14:45:16.303Z,61.88
2018-09-03T14:46:16.195Z,61.88
2018-09-03T14:48:09.512Z,61.88
2018-09-03T14:49:09.471Z,56.25
2018-09-03T14:51:02.789Z,56.25
2018-09-03T14:52:02.754Z,56.25
2018-09-03T14:53:56.076Z,56.25
2018-09-03T14:54:56.039Z,61.88
2018-09-03T14:56:49.365Z,67.50
2018-09-03T14:57:49.320Z,67.50
2018-09-03T14:59:42.140Z,73.13
2018-09-03T15:00:42.115Z,78.75
2018-09-03T15:02:35.427Z,90.00
2018-09-03T15:03:35.386Z,95.63
2018-09-03T15:05:28.701Z,101.25
2018-09-03T15:06:28.673Z,118.13
2018-09-03T15:08:21.532Z,112.50
2018-09-03T15:09:21.465Z,101.25
2018-09-03T15:11:14.300Z,106.88
2018-09-03T15:12:14.250Z,95.63
2018-09-03T15:14:07.595Z,95.63
2018-09-03T15:15:07.738Z,90.00
2018-09-03T15:17:00.876Z,67.50
2018-09-03T15:18:00.835Z,67.50
2018-09-03T15:19:53.671Z,67.50
2018-09-03T15:20:53.625Z,67.50
2018-09-03T15:22:46.952Z,61.88
2018-09-03T15:23:46.915Z,61.88
2018-09-03T15:25:40.232Z,50.63
2018-09-03T15:26:40.234Z,50.63
2018-09-03T15:28:33.540Z,45.00
2018-09-03T15:29:33.498Z,39.38
2018-09-03T15:31:27.810Z,33.75
2018-09-03T15:32:27.776Z,33.75
2018-09-03T15:34:21.103Z,33.75
2018-09-03T15:35:21.058Z,28.13
2018-09-03T15:37:13.884Z,28.13
2018-09-03T15:38:13.852Z,28.13
2018-09-03T15:40:07.164Z,33.75
2018-09-03T15:41:07.128Z,33.75
2018-09-03T15:43:00.062Z,28.13
2018-09-03T15:43:59.928Z,28.13
2018-09-03T15:45:52.746Z,28.13
2018-09-03T15:46:52.727Z,28.13
2018-09-03T15:48:45.614Z,22.50
2018-09-03T15:49:45.508Z,28.13
2018-09-03T15:51:38.329Z,28.13
2018-09-03T15:52:38.301Z,28.13
2018-09-03T15:54:31.134Z,28.13
2018-09-03T15:55:31.083Z,28.13
2018-09-03T15:57:23.903Z,28.13
2018-09-03T15:58:23.881Z,28.13
2018-09-03T16:00:17.200Z,28.13
2018-09-03T16:01:17.156Z,28.13
2018-09-03T16:03:10.544Z,28.13
2018-09-03T16:04:10.444Z,28.13
2018-09-03T16:06:03.769Z,22.50
2018-09-03T16:07:03.733Z,22.50
2018-09-03T16:08:56.613Z,16.88
2018-09-03T16:09:56.517Z,16.88
2018-09-03T16:11:49.837Z,16.88
2018-09-03T16:12:49.799Z,11.25
2018-09-03T16:14:43.164Z,11.25
2018-09-03T16:15:43.114Z,11.25
2018-09-03T16:17:35.933Z,11.25
2018-09-03T16:18:35.894Z,11.25
2018-09-03T16:20:29.418Z,11.25
2018-09-03T16:21:29.196Z,11.25
2018-09-03T16:23:22.493Z,11.25
2018-09-03T16:24:22.465Z,11.25
2018-09-03T16:26:15.804Z,16.88
2018-09-03T16:27:15.776Z,11.25
2018-09-03T16:29:08.564Z,11.25
2018-09-03T16:30:08.545Z,11.25
2018-09-03T16:32:01.863Z,5.63
2018-09-03T16:33:01.815Z,5.63
2018-09-03T16:34:55.143Z,5.63
2018-09-03T16:35:55.150Z,5.63
2018-09-03T16:37:47.912Z,5.63
2018-09-03T16:38:48.003Z,5.63
2018-09-03T16:40:40.714Z,5.63
2018-09-03T16:41:40.682Z,5.63
2018-09-03T16:43:33.988Z,5.63
2018-09-03T16:44:33.963Z,5.63
2018-09-03T16:46:27.283Z,0.00
2018-09-03T16:47:27.239Z,0.00
2018-09-03T16:49:20.551Z,0.00
2018-09-03T16:50:20.520Z,0.00
2018-09-03T16:52:13.354Z,0.00
2018-09-03T16:53:13.312Z,0.00
2018-09-03T16:55:06.661Z,0.00
2018-09-03T16:56:06.600Z,0.00
2018-09-03T16:57:59.435Z,0.00
2018-09-03T16:58:59.407Z,0.00
2018-09-03T17:00:52.304Z,0.00
2018-09-03T17:01:52.197Z,5.63
2018-09-03T17:03:45.013Z,5.63
2018-09-03T17:04:44.982Z,5.63
2018-09-03T17:06:38.319Z,5.63
2018-09-03T17:07:38.401Z,5.63
2018-09-03T17:09:31.076Z,5.63
2018-09-03T17:10:31.049Z,0.00
2018-09-03T17:12:23.880Z,0.00
2018-09-03T17:13:23.902Z,0.00
2018-09-03T17:15:16.658Z,0.00
2018-09-03T17:16:16.625Z,0.00
2018-09-03T17:18:09.471Z,0.00
2018-09-03T17:19:09.417Z,0.00
2018-09-03T17:21:02.238Z,0.00
2018-09-03T17:22:02.200Z,0.00
2018-09-03T17:23:55.041Z,0.00
2018-09-03T17:24:54.995Z,0.00
2018-09-03T17:26:48.335Z,0.00
2018-09-03T17:27:48.282Z,0.00
2018-09-03T17:29:41.088Z,0.00
2018-09-03T17:30:41.056Z,0.00
2018-09-03T17:32:33.890Z,0.00
2018-09-03T17:33:33.847Z,0.00
2018-09-03T17:35:26.663Z,0.00
2018-09-03T17:36:26.637Z,0.00
2018-09-03T17:38:19.466Z,0.00
2018-09-03T17:39:19.431Z,0.00
2018-09-03T17:41:12.251Z,0.00
2018-09-03T17:42:12.226Z,0.00
2018-09-03T17:44:05.056Z,0.00
2018-09-03T17:45:05.006Z,0.00
2018-09-03T17:46:58.440Z,0.00
2018-09-03T17:47:58.288Z,0.00
2018-09-03T17:49:51.146Z,0.00
2018-09-03T17:50:51.071Z,0.00
2018-09-03T17:52:43.886Z,0.00
2018-09-03T17:53:43.849Z,0.00
2018-09-03T17:55:36.683Z,0.00
2018-09-03T17:56:36.648Z,0.00
2018-09-03T17:58:29.963Z,0.00
2018-09-03T17:59:29.928Z,0.00
2018-09-03T18:01:23.263Z,0.00
2018-09-03T18:02:23.219Z,0.00
2018-09-03T18:04:16.553Z,0.00
2018-09-03T18:05:16.488Z,0.00
2018-09-03T18:07:09.311Z,0.00
2018-09-03T18:08:09.337Z,0.00
2018-09-03T18:10:02.608Z,0.00
2018-09-03T18:11:02.564Z,0.00
2018-09-03T18:12:55.390Z,0.00
2018-09-03T18:13:55.353Z,0.00
2018-09-03T18:15:48.186Z,0.00
2018-09-03T18:16:48.138Z,0.00
2018-09-03T18:18:40.964Z,0.00
2018-09-03T18:19:40.925Z,0.00
2018-09-03T18:21:34.315Z,0.00
2018-09-03T18:22:34.208Z,0.00
2018-09-03T18:24:27.527Z,0.00
2018-09-03T18:25:27.499Z,0.00
2018-09-03T18:27:20.329Z,0.00
2018-09-03T18:28:20.305Z,0.00
2018-09-03T18:30:13.187Z,0.00
2018-09-03T18:31:13.068Z,0.00
2018-09-03T18:33:05.880Z,0.00
2018-09-03T18:34:05.892Z,0.00
2018-09-03T18:35:58.786Z,0.00
2018-09-03T18:36:58.643Z,0.00
2018-09-03T18:38:51.472Z,0.00
2018-09-03T18:39:51.451Z,0.00
2018-09-03T18:41:44.398Z,0.00
2018-09-03T18:42:44.314Z,0.00
2018-09-03T18:44:37.113Z,0.00
2018-09-03T18:45:37.099Z,0.00
2018-09-03T18:47:30.012Z,0.00